createdAt,value
2022-08-22T00:00:01.551Z,99418.59
2022-08-22T00:02:31.945Z,99422.06
2022-08-22T00:02:53.747Z,99459.56
2022-08-22T00:05:02.341Z,99416.28
2022-08-22T00:07:29.510Z,99421.50
2022-08-22T00:10:12.338Z,99415.38
2022-08-22T00:13:01.637Z,99408.78
2022-08-22T00:15:43.357Z,99397.91
2022-08-22T00:18:31.569Z,99399.16
2022-08-22T00:21:14.030Z,99400.09
2022-08-22T00:23:41.244Z,99400.38
2022-08-22T00:26:26.943Z,99400.66
2022-08-22T00:29:01.400Z,99404.59
2022-08-22T00:31:43.219Z,99398.91
2022-08-22T00:34:12.254Z,99391.06
2022-08-22T00:36:42.594Z,99397.22
2022-08-22T00:39:31.344Z,99397.97
2022-08-22T00:41:58.539Z,99405.72
2022-08-22T00:44:31.841Z,99393.19
2022-08-22T00:47:19.983Z,99402.59
2022-08-22T00:50:05.783Z,99403.28
2022-08-22T00:52:58.548Z,99401.81
2022-08-22T00:55:26.334Z,99413.41
2022-08-22T00:58:14.509Z,99412.25
2022-08-22T01:00:44.376Z,99415.81
2022-08-22T01:03:29.960Z,99409.69
2022-08-22T01:06:24.983Z,99419.59
2022-08-22T01:09:05.059Z,99422.78
2022-08-22T01:11:51.995Z,99424.13
2022-08-22T01:14:34.919Z,99427.38
2022-08-22T01:17:24.147Z,99433.22
2022-08-22T01:20:10.527Z,99439.31
2022-08-22T01:23:00.384Z,99446.97
2022-08-22T01:25:47.735Z,99442.53
2022-08-22T01:28:21.253Z,99442.34
2022-08-22T01:30:53.772Z,99448.91
2022-08-22T01:33:27.161Z,99445.63
2022-08-22T01:36:00.377Z,99450.13
2022-08-22T01:38:46.114Z,99451.06
2022-08-22T01:41:16.905Z,99456.00
2022-08-22T01:44:00.100Z,99454.06
2022-08-22T01:46:46.715Z,99455.94
2022-08-22T01:49:16.895Z,99459.88
2022-08-22T01:51:54.049Z,99453.84
2022-08-22T01:54:23.943Z,99454.50
2022-08-22T01:56:58.951Z,99453.84
2022-08-22T01:59:34.902Z,99452.75
2022-08-22T02:02:20.857Z,99445.22
2022-08-22T02:04:53.459Z,99442.25
2022-08-22T02:07:31.607Z,99446.28
2022-08-22T02:10:12.834Z,99443.16
2022-08-22T02:12:43.230Z,99454.53
2022-08-22T02:15:31.737Z,99447.69
2022-08-22T02:18:20.830Z,99446.72
2022-08-22T02:20:51.672Z,99430.34
2022-08-22T02:23:28.848Z,99424.13
2022-08-22T02:25:56.209Z,99420.28
2022-08-22T02:28:29.809Z,99420.41
2022-08-22T02:31:05.608Z,99406.72
2022-08-22T02:33:48.012Z,99402.78
2022-08-22T02:36:22.025Z,99411.69
2022-08-22T02:38:58.615Z,99404.28
2022-08-22T02:41:32.048Z,99410.66
2022-08-22T02:44:27.668Z,99409.44
2022-08-22T02:47:13.920Z,99409.88
2022-08-22T02:49:51.387Z,99414.53
2022-08-22T02:52:28.574Z,99415.84
2022-08-22T02:55:18.845Z,99418.69
2022-08-22T02:58:05.181Z,99411.09
2022-08-22T03:00:48.387Z,99415.03
2022-08-22T03:03:22.487Z,99423.19
2022-08-22T03:06:01.309Z,99427.91
2022-08-22T03:08:34.562Z,99439.25
2022-08-22T03:11:19.258Z,99440.91
2022-08-22T03:13:49.679Z,99438.84
2022-08-22T03:16:22.438Z,99442.72
2022-08-22T03:19:14.851Z,99438.22
2022-08-22T03:21:58.109Z,99439.56
2022-08-22T03:24:35.359Z,99445.78
2022-08-22T03:27:14.389Z,99444.88
2022-08-22T03:30:08.924Z,99445.84
2022-08-22T03:32:54.666Z,99457.22
2022-08-22T03:35:27.663Z,99470.63
2022-08-22T03:38:11.549Z,99465.16
2022-08-22T03:40:57.570Z,99462.25
2022-08-22T03:43:24.912Z,99459.28
2022-08-22T03:46:27.419Z,99462.59
2022-08-22T03:49:01.299Z,99470.09
2022-08-22T03:51:34.207Z,99465.56
2022-08-22T03:54:16.267Z,99463.94
2022-08-22T03:56:47.386Z,99465.31
2022-08-22T03:59:43.756Z,99470.09
2022-08-22T04:02:43.142Z,99465.94
2022-08-22T04:05:21.537Z,99471.22
2022-08-22T04:08:07.856Z,99465.94
2022-08-22T04:11:12.036Z,99470.78
2022-08-22T04:14:00.564Z,99469.84
2022-08-22T04:16:39.587Z,99465.78
2022-08-22T04:19:25.978Z,99470.34
2022-08-22T04:21:56.276Z,99481.47
2022-08-22T04:24:48.991Z,99482.78
2022-08-22T04:27:47.643Z,99491.31
2022-08-22T04:30:18.104Z,99495.75
2022-08-22T04:32:51.840Z,99496.06
2022-08-22T04:35:39.825Z,99487.44
2022-08-22T04:38:28.981Z,99502.19
2022-08-22T04:41:15.151Z,99499.63
2022-08-22T04:44:07.078Z,99509.50
2022-08-22T04:46:44.868Z,99511.91
2022-08-22T04:49:20.325Z,99505.94
2022-08-22T04:51:56.712Z,99512.69
2022-08-22T04:54:24.504Z,99509.28
2022-08-22T04:57:07.161Z,99506.97
2022-08-22T04:59:38.764Z,99512.00
2022-08-22T05:02:09.407Z,99511.34
2022-08-22T05:04:40.660Z,99517.91
2022-08-22T05:07:16.394Z,99508.06
2022-08-22T05:09:48.751Z,99499.34
2022-08-22T05:12:26.581Z,99508.88
2022-08-22T05:15:03.308Z,99518.69
2022-08-22T05:17:34.944Z,99516.38
2022-08-22T05:20:06.009Z,99519.66
2022-08-22T05:22:43.672Z,99523.75
2022-08-22T05:25:17.482Z,99532.66
2022-08-22T05:27:56.754Z,99536.38
2022-08-22T05:30:28.222Z,99538.00
2022-08-22T05:33:21.487Z,99540.28
2022-08-22T05:36:09.463Z,99539.13
2022-08-22T05:38:40.374Z,99536.50
2022-08-22T05:41:17.583Z,99539.50
2022-08-22T05:43:45.406Z,99539.09
2022-08-22T05:46:32.851Z,99542.66
2022-08-22T05:49:09.871Z,99536.63
2022-08-22T05:51:46.711Z,99536.94
2022-08-22T05:54:18.962Z,99547.00
2022-08-22T05:56:57.238Z,99541.97
2022-08-22T05:59:35.483Z,99548.16
2022-08-22T06:02:02.964Z,99552.44
2022-08-22T06:04:45.645Z,99557.50
2022-08-22T06:07:30.259Z,99558.16
2022-08-22T06:10:00.072Z,99565.09
2022-08-22T06:12:38.745Z,99565.63
2022-08-22T06:15:20.798Z,99567.84
2022-08-22T06:17:55.364Z,99563.28
2022-08-22T06:20:46.340Z,99566.34
2022-08-22T06:23:15.841Z,99569.44
2022-08-22T06:25:45.337Z,99577.81
2022-08-22T06:28:22.260Z,99575.09
2022-08-22T06:30:57.087Z,99578.28
2022-08-22T06:33:30.884Z,99575.84
2022-08-22T06:36:04.521Z,99582.50
2022-08-22T06:39:00.650Z,99587.22
2022-08-22T06:41:30.928Z,99586.84
2022-08-22T06:44:03.593Z,99581.81
2022-08-22T06:46:33.523Z,99589.78
2022-08-22T06:49:02.950Z,99585.66
2022-08-22T06:51:31.604Z,99584.75
2022-08-22T06:54:02.644Z,99580.03
2022-08-22T06:56:35.539Z,99579.59
2022-08-22T07:02:51.382Z,99580.72
2022-08-22T07:05:25.696Z,99577.22
2022-08-22T07:07:54.939Z,99573.66
2022-08-22T07:10:28.903Z,99578.09
2022-08-22T07:13:02.512Z,99574.00
2022-08-22T07:15:37.285Z,99570.13
2022-08-22T07:18:20.949Z,99574.44
2022-08-22T07:20:53.150Z,99581.53
2022-08-22T07:23:34.875Z,99571.38
2022-08-22T07:26:13.329Z,99578.97
2022-08-22T07:28:51.225Z,99578.81
2022-08-22T07:31:38.147Z,99584.00
2022-08-22T07:34:23.254Z,99584.56
2022-08-22T07:37:03.894Z,99577.31
2022-08-22T07:39:35.302Z,99579.16
2022-08-22T07:42:16.723Z,99583.63
2022-08-22T07:44:57.461Z,99583.06
2022-08-22T07:47:49.545Z,99578.81
2022-08-22T07:50:20.865Z,99586.22
2022-08-22T07:52:49.737Z,99583.78
2022-08-22T07:55:24.890Z,99594.84
2022-08-22T07:58:08.863Z,99602.59
2022-08-22T08:00:48.983Z,99592.34
2022-08-22T08:06:51.294Z,99594.16
2022-08-22T08:09:19.499Z,99589.97
2022-08-22T08:11:49.260Z,99585.50
2022-08-22T08:14:24.396Z,99579.66
2022-08-22T08:17:02.274Z,99581.97
2022-08-22T08:19:36.272Z,99581.19
2022-08-22T08:22:09.763Z,99590.56
2022-08-22T08:24:45.239Z,99590.38
2022-08-22T08:27:25.386Z,99588.88
2022-08-22T08:30:22.731Z,99585.00
2022-08-22T08:32:59.592Z,99584.19
2022-08-22T08:36:03.300Z,99590.44
2022-08-22T08:38:45.730Z,99581.78
2022-08-22T08:41:29.119Z,99589.59
2022-08-22T08:44:04.094Z,99592.03
2022-08-22T08:46:40.344Z,99594.72
2022-08-22T08:49:24.127Z,99586.78
2022-08-22T08:51:56.967Z,99592.56
2022-08-22T08:54:49.742Z,99589.81
2022-08-22T09:07:42.127Z,99589.44
2022-08-22T09:13:42.044Z,99584.69
2022-08-22T09:16:30.931Z,99582.66
2022-08-22T09:19:01.767Z,99583.75
2022-08-22T09:21:47.691Z,99582.28
2022-08-22T09:24:21.338Z,99580.78
2022-08-22T09:26:57.621Z,99574.19
2022-08-22T09:32:58.846Z,99577.88
2022-08-22T09:35:44.363Z,99578.56
2022-08-22T09:44:55.428Z,99570.44
2022-08-22T09:47:34.144Z,99566.91
2022-08-22T09:50:04.883Z,99572.72
2022-08-22T09:52:37.053Z,99572.28
2022-08-22T09:55:35.129Z,99573.09
2022-08-22T09:58:18.872Z,99571.50
2022-08-22T10:00:55.306Z,99567.56
2022-08-22T10:03:32.017Z,99567.16
2022-08-22T10:06:17.317Z,99570.69
2022-08-22T10:09:04.905Z,99573.09
2022-08-22T10:11:45.400Z,99560.53
2022-08-22T10:14:28.547Z,99562.84
2022-08-22T10:17:02.514Z,99560.56
2022-08-22T10:20:05.290Z,99555.22
2022-08-22T10:22:45.254Z,99552.06
2022-08-22T10:25:23.091Z,99547.38
2022-08-22T10:28:06.279Z,99546.19
2022-08-22T10:31:07.530Z,99552.78
2022-08-22T10:33:39.705Z,99548.84
2022-08-22T10:36:21.640Z,99548.03
2022-08-22T10:39:00.146Z,99547.22
2022-08-22T10:42:04.721Z,99546.78
2022-08-22T10:44:51.990Z,99545.22
2022-08-22T10:47:29.846Z,99548.84
2022-08-22T10:50:08.724Z,99545.41
2022-08-22T10:52:57.588Z,99547.72
2022-08-22T10:55:29.820Z,99541.47
2022-08-22T10:58:34.440Z,99535.13
2022-08-22T11:01:38.206Z,99540.22
2022-08-22T11:03:54.338Z,99536.69
2022-08-22T11:06:25.028Z,99538.94
2022-08-22T11:09:01.611Z,99546.34
2022-08-22T11:11:32.755Z,99549.88
2022-08-22T11:14:19.214Z,99542.06
2022-08-22T11:17:00.642Z,99541.25
2022-08-22T11:19:34.654Z,99547.84
2022-08-22T11:22:11.160Z,99535.31
2022-08-22T11:24:55.862Z,99535.53
2022-08-22T11:27:39.742Z,99535.22
2022-08-22T11:30:20.551Z,99535.66
2022-08-22T11:33:10.210Z,99525.88
2022-08-22T11:35:44.104Z,99527.41
2022-08-22T11:38:32.881Z,99516.78
2022-08-22T11:41:13.166Z,99515.25
2022-08-22T11:44:03.633Z,99513.31
2022-08-22T11:46:39.746Z,99507.81
2022-08-22T11:49:25.783Z,99512.91
2022-08-22T11:52:00.977Z,99509.69
2022-08-22T11:54:47.171Z,99510.81
2022-08-22T11:57:44.217Z,99506.47
2022-08-22T12:00:33.949Z,99506.53
2022-08-22T12:03:23.963Z,99508.13
2022-08-22T12:06:01.447Z,99501.81
2022-08-22T12:08:35.003Z,99505.56
2022-08-22T12:11:22.627Z,99501.97
2022-08-22T12:13:50.050Z,99500.56
2022-08-22T12:16:20.828Z,99487.25
2022-08-22T12:19:18.031Z,99486.13
2022-08-22T12:21:53.058Z,99482.13
2022-08-22T12:24:27.808Z,99475.81
2022-08-22T12:27:07.743Z,99477.31
2022-08-22T12:29:45.107Z,99478.84
2022-08-22T12:32:27.623Z,99475.59
2022-08-22T12:35:14.656Z,99470.50
2022-08-22T12:38:28.412Z,99481.88
2022-08-22T12:41:02.413Z,99480.78
2022-08-22T12:43:42.718Z,99475.06
2022-08-22T12:46:32.562Z,99480.63
2022-08-22T12:49:07.475Z,99476.03
2022-08-22T12:51:49.005Z,99473.72
2022-08-22T12:54:28.267Z,99474.53
2022-08-22T12:57:23.690Z,99476.50
2022-08-22T12:59:55.031Z,99472.22
2022-08-22T13:02:36.595Z,99480.06
2022-08-22T13:05:20.179Z,99473.00
2022-08-22T13:08:04.712Z,99473.81
2022-08-22T13:10:32.609Z,99470.66
2022-08-22T13:13:03.946Z,99477.66
2022-08-22T13:15:42.810Z,99480.72
2022-08-22T13:18:30.560Z,99481.06
2022-08-22T13:21:04.508Z,99476.03
2022-08-22T13:23:45.366Z,99478.41
2022-08-22T13:26:16.331Z,99474.88
2022-08-22T13:31:56.623Z,99476.47
2022-08-22T13:34:39.546Z,99468.19
2022-08-22T13:37:12.222Z,99468.91
2022-08-22T13:39:46.339Z,99463.78
2022-08-22T13:42:30.006Z,99470.47
2022-08-22T13:44:59.946Z,99472.78
2022-08-22T13:47:39.331Z,99461.84
2022-08-22T13:50:17.480Z,99459.09
2022-08-22T13:52:55.258Z,99458.69
2022-08-22T13:55:43.485Z,99457.88
2022-08-22T13:58:14.709Z,99454.00
2022-08-22T14:00:57.662Z,99450.84
2022-08-22T14:03:28.794Z,99455.22
2022-08-22T14:06:37.767Z,99459.97
2022-08-22T14:09:10.890Z,99457.56
2022-08-22T14:11:46.850Z,99463.00
2022-08-22T14:14:21.267Z,99468.13
2022-08-22T14:16:50.369Z,99455.22
2022-08-22T14:19:32.154Z,99456.03
2022-08-22T14:22:31.657Z,99458.81
2022-08-22T14:25:02.576Z,99465.06
2022-08-22T14:27:38.167Z,99462.31
2022-08-22T14:30:15.865Z,99458.81
2022-08-22T14:32:57.445Z,99467.84
2022-08-22T14:35:34.879Z,99461.19
2022-08-22T14:38:27.230Z,99465.09
2022-08-22T14:40:59.659Z,99463.53
2022-08-22T14:43:27.618Z,99471.72
2022-08-22T14:46:02.696Z,99460.72
2022-08-22T14:48:46.907Z,99455.56
2022-08-22T14:51:23.275Z,99452.44
2022-08-22T14:54:08.366Z,99450.06
2022-08-22T14:57:20.023Z,99445.34
2022-08-22T14:59:52.284Z,99442.59
2022-08-22T15:02:28.782Z,99445.31
2022-08-22T15:04:58.404Z,99442.25
2022-08-22T15:07:30.988Z,99431.78
2022-08-22T15:10:03.585Z,99434.56
2022-08-22T15:12:37.760Z,99439.69
2022-08-22T15:15:12.788Z,99440.47
2022-08-22T15:17:46.364Z,99439.31
2022-08-22T15:20:34.041Z,99435.41
2022-08-22T15:23:23.634Z,99434.63
2022-08-22T15:26:03.858Z,99439.72
2022-08-22T15:28:52.592Z,99446.75
2022-08-22T15:31:21.658Z,99449.50
2022-08-22T15:33:53.626Z,99444.41
2022-08-22T15:36:27.962Z,99447.53
2022-08-22T15:39:00.110Z,99445.22
2022-08-22T15:41:36.393Z,99448.72
2022-08-22T15:44:07.491Z,99451.84
2022-08-22T15:46:43.704Z,99455.75
2022-08-22T15:49:11.231Z,99465.53
2022-08-22T15:51:57.411Z,99459.66
2022-08-22T15:54:37.695Z,99466.72
2022-08-22T15:57:20.014Z,99467.50
2022-08-22T15:59:53.623Z,99474.56
2022-08-22T16:02:24.375Z,99472.19
2022-08-22T16:05:18.988Z,99480.81
2022-08-22T16:07:46.486Z,99478.47
2022-08-22T16:10:29.804Z,99482.38
2022-08-22T16:13:16.001Z,99492.16
2022-08-22T16:15:56.537Z,99485.94
2022-08-22T16:18:33.660Z,99490.63
2022-08-22T16:21:08.203Z,99490.22
2022-08-22T16:23:50.873Z,99484.75
2022-08-22T16:26:20.315Z,99488.25
2022-08-22T16:28:58.547Z,99500.03
2022-08-22T16:31:44.314Z,99487.47
2022-08-22T16:34:17.898Z,99490.22
2022-08-22T16:36:50.553Z,99490.22
2022-08-22T16:39:23.819Z,99494.94
2022-08-22T16:42:14.337Z,99491.78
2022-08-22T16:48:16.623Z,99499.25
2022-08-22T16:50:44.248Z,99500.41
2022-08-22T16:53:20.313Z,99505.09
2022-08-22T16:56:03.132Z,99502.75
2022-08-22T16:58:56.153Z,99503.94
2022-08-22T17:01:34.486Z,99500.41
2022-08-22T17:04:14.104Z,99505.88
2022-08-22T17:07:02.469Z,99510.59
2022-08-22T17:09:51.363Z,99503.50
2022-08-22T17:12:28.310Z,99492.59
2022-08-22T17:15:11.320Z,99491.03
2022-08-22T17:17:57.337Z,99498.84
2022-08-22T17:20:39.104Z,99509.00
2022-08-22T17:23:39.488Z,99507.44
2022-08-22T17:26:37.210Z,99511.31
2022-08-22T17:29:24.779Z,99512.88
2022-08-22T17:32:08.976Z,99519.06
2022-08-22T17:34:45.517Z,99515.19
2022-08-22T17:37:28.367Z,99525.31
2022-08-22T17:43:39.234Z,99533.16
2022-08-22T17:46:31.888Z,99526.88
2022-08-22T17:49:09.671Z,99525.72
2022-08-22T17:51:46.439Z,99526.09
2022-08-22T17:54:20.624Z,99521.41
2022-08-22T17:56:48.399Z,99524.13
2022-08-22T17:59:30.285Z,99523.34
2022-08-22T18:02:01.216Z,99526.03
2022-08-22T18:04:31.998Z,99526.03
2022-08-22T18:07:19.599Z,99533.09
2022-08-22T18:09:58.284Z,99522.91
2022-08-22T18:12:37.910Z,99529.91
2022-08-22T18:15:12.811Z,99531.47
2022-08-22T18:17:52.672Z,99531.47
2022-08-22T18:20:45.729Z,99533.81
2022-08-22T18:23:39.028Z,99529.56
2022-08-22T18:26:28.966Z,99526.00
2022-08-22T18:29:08.825Z,99529.56
2022-08-22T18:31:42.573Z,99525.66
2022-08-22T18:34:21.168Z,99531.53
2022-08-22T18:36:57.597Z,99528.38
2022-08-22T18:39:37.632Z,99540.00
2022-08-22T18:42:34.699Z,99540.41
2022-08-22T18:45:02.274Z,99538.78
2022-08-22T18:47:32.539Z,99545.41
2022-08-22T18:50:05.678Z,99552.41
2022-08-22T18:52:39.780Z,99550.81
2022-08-22T18:55:10.346Z,99557.88
2022-08-22T18:57:56.532Z,99556.31
2022-08-22T19:00:43.245Z,99564.88
2022-08-22T19:03:25.675Z,99568.78
2022-08-22T19:06:08.200Z,99571.81
2022-08-22T19:08:44.590Z,99581.19
2022-08-22T19:11:35.088Z,99565.59
2022-08-22T19:14:08.078Z,99564.81
2022-08-22T19:16:45.206Z,99579.25
2022-08-22T19:19:31.701Z,99575.34
2022-08-22T19:22:21.487Z,99574.28
2022-08-22T19:25:01.446Z,99572.31
2022-08-22T19:27:38.563Z,99572.63
2022-08-22T19:30:10.291Z,99578.19
2022-08-22T19:32:46.841Z,99586.50
2022-08-22T19:35:26.820Z,99584.91
2022-08-22T19:38:02.130Z,99589.03
2022-08-22T19:40:45.035Z,99592.28
2022-08-22T19:43:23.672Z,99600.66
2022-08-22T19:45:52.570Z,99591.69
2022-08-22T19:48:27.253Z,99598.75
2022-08-22T19:51:09.335Z,99597.94
2022-08-22T19:53:40.196Z,99610.72
2022-08-22T19:56:31.667Z,99609.78
2022-08-22T19:59:03.785Z,99615.94
2022-08-22T20:01:46.448Z,99617.88
2022-08-22T20:04:34.822Z,99620.25
2022-08-22T20:07:24.501Z,99619.03
2022-08-22T20:10:16.057Z,99625.66
2022-08-22T20:13:02.332Z,99623.16
2022-08-22T20:15:31.779Z,99632.13
2022-08-22T20:21:00.936Z,99625.53
2022-08-22T20:23:36.259Z,99630.44
2022-08-22T20:26:07.625Z,99630.78
2022-08-22T20:28:44.237Z,99634.78
2022-08-22T20:31:19.190Z,99636.38
2022-08-22T20:33:55.435Z,99627.13
2022-08-22T20:36:28.070Z,99632.31
2022-08-22T20:39:09.445Z,99635.88
2022-08-22T20:41:39.168Z,99639.38
2022-08-22T20:44:13.769Z,99640.94
2022-08-22T20:46:53.339Z,99648.69
2022-08-22T20:49:32.997Z,99643.59
2022-08-22T20:52:02.798Z,99643.94
2022-08-22T20:54:37.599Z,99637.72
2022-08-22T20:57:11.150Z,99639.97
2022-08-22T20:59:49.865Z,99642.63
2022-08-22T21:02:23.318Z,99642.13
2022-08-22T21:04:57.244Z,99635.53
2022-08-22T21:07:28.390Z,99637.34
2022-08-22T21:10:22.276Z,99636.91
2022-08-22T21:13:10.994Z,99631.91
2022-08-22T21:15:43.626Z,99637.75
2022-08-22T21:18:12.300Z,99635.34
2022-08-22T21:20:40.222Z,99638.84
2022-08-22T21:23:13.814Z,99634.53
2022-08-22T21:26:10.269Z,99638.41
2022-08-22T21:28:41.205Z,99634.44
2022-08-22T21:31:19.601Z,99622.59
2022-08-22T21:33:53.984Z,99622.59
2022-08-22T21:36:24.647Z,99617.19
2022-08-22T21:39:04.105Z,99617.09
2022-08-22T21:41:38.672Z,99616.75
2022-08-22T21:44:25.198Z,99617.66
2022-08-22T21:46:53.413Z,99617.38
2022-08-22T21:49:27.071Z,99611.84
2022-08-22T21:51:57.694Z,99609.09
2022-08-22T21:54:35.508Z,99614.16
2022-08-22T21:57:08.745Z,99609.97
2022-08-22T21:59:58.946Z,99607.25
2022-08-22T22:02:34.183Z,99600.59
2022-08-22T22:05:08.475Z,99602.94
2022-08-22T22:07:42.063Z,99604.78
2022-08-22T22:10:12.248Z,99610.69
2022-08-22T22:12:44.849Z,99597.03
2022-08-22T22:15:22.293Z,99588.44
2022-08-22T22:17:54.414Z,99587.66
2022-08-22T22:20:25.083Z,99595.47
2022-08-22T22:22:52.951Z,99603.16
2022-08-22T22:25:40.947Z,99604.03
2022-08-22T22:28:29.467Z,99593.81
2022-08-22T22:30:57.497Z,99591.66
2022-08-22T22:33:28.998Z,99588.56
2022-08-22T22:35:59.223Z,99590.44
2022-08-22T22:38:26.613Z,99593.31
2022-08-22T22:40:54.373Z,99599.84
2022-08-22T22:43:21.810Z,99595.44
2022-08-22T22:45:49.297Z,99601.72
2022-08-22T22:48:23.769Z,99596.53
2022-08-22T22:50:52.894Z,99586.81
2022-08-22T22:53:21.493Z,99595.69
2022-08-22T22:56:10.076Z,99586.09
2022-08-22T22:58:45.054Z,99589.03
2022-08-22T23:01:16.237Z,99592.06
2022-08-22T23:03:46.693Z,99594.31
2022-08-22T23:06:19.712Z,99588.06
2022-08-22T23:08:47.905Z,99585.66
2022-08-22T23:11:21.265Z,99582.41
2022-08-22T23:13:49.336Z,99578.91
2022-08-22T23:16:19.343Z,99579.63
2022-08-22T23:18:52.926Z,99581.63
2022-08-22T23:21:26.630Z,99586.97
2022-08-22T23:23:58.205Z,99578.72
2022-08-22T23:26:29.619Z,99575.28
2022-08-22T23:28:58.231Z,99567.16
2022-08-22T23:31:31.374Z,99572.25
2022-08-22T23:34:03.196Z,99569.94
2022-08-22T23:36:33.464Z,99574.59
2022-08-22T23:39:08.747Z,99573.22
2022-08-22T23:41:36.943Z,99577.69
2022-08-22T23:44:05.476Z,99582.19
2022-08-22T23:46:39.076Z,99574.44
2022-08-22T23:49:06.604Z,99579.81
2022-08-22T23:51:36.739Z,99584.91
2022-08-22T23:54:07.126Z,99582.97
2022-08-22T23:56:40.943Z,99582.00
2022-08-22T23:59:15.469Z,99573.47
